Platitera Tonouranon — SX7180 — position and weather

sailwx.info

Track history (hours):
 
Tides and Currents Weather Stations Pressure Air Temp Water Temp Dewpoint Dewpoint Depression Visibility Wind Speed Wind Dir Waves Ship Positions

Platitera Tonouranon

Last reported at 2015-Feb-28 17:34 UTC. Time now 2015-Feb-28 23:01 UTC.
Position N 37°56' E 023°41'.

Length 55 m; draft 3.8 m.

Type: Ship (hazmat cat A). MMSI: 237038200.

Date/timePositionNaut miles runAvg speedWind from/ knotsBaromVisibWave heightAir tempDewpointWater temp
2015-Feb-28 17:34N 37°56' E 023°41'1010.3
2015-Feb-28 16:33N 37°50' E 023°31'11 3.8
2015-Feb-28 13:33N 37°39' E 023°26'7 1.2
2015-Feb-28 07:34N 37°43' E 023°33'1212.0
2015-Feb-28 06:34N 37°54' E 023°39'3 2.7
2015-Feb-28 05:33N 37°56' E 023°41'0 0.0
2015-Feb-27 16:33N 37°56' E 023°41'1111.1
2015-Feb-27 15:33N 37°47' E 023°34'7 3.2
2015-Feb-27 13:26N 37°45' E 023°26'0 0.2
2015-Feb-27 12:33N 37°45' E 023°25'1210.8
2015-Feb-27 11:24N 37°32' E 023°26'2 2.8
2015-Feb-27 10:33N 37°30' E 023°27'0 0.0
2015-Feb-27 09:33N 37°30' E 023°27'7 7.0
2015-Feb-27 08:33N 37°37' E 023°26'1111.2
2015-Feb-27 07:33N 37°48' E 023°26'1010.3
2015-Feb-27 06:33N 37°53' E 023°38'4 4.2
2015-Feb-27 05:33N 37°56' E 023°41'0 0.0
2015-Feb-26 17:33N 37°56' E 023°41'1010.4
2015-Feb-26 16:33N 37°50' E 023°31'6 3.2
2015-Feb-26 14:33N 37°45' E 023°26'5 5.1
2015-Feb-26 13:31N 37°39' E 023°26'10 9.5
2015-Feb-26 12:31N 37°30' E 023°27'4 4.1
2015-Feb-26 11:29N 37°28' E 023°31'6 2.6
2015-Feb-26 09:16N 37°22' E 023°29'2111.5
2015-Feb-26 07:26N 37°43' E 023°33'1112.0
2015-Feb-26 06:34N 37°53' E 023°37'5 4.4
2015-Feb-26 05:32N 37°56' E 023°41'0 0.0
2015-Feb-25 17:33N 37°56' E 023°41'1110.5
2015-Feb-25 16:33N 37°50' E 023°31'12 3.9
2015-Feb-25 13:23N 37°38' E 023°26'6 1.1
2015-Feb-25 08:04N 37°34' E 023°31'811.8
2015-Feb-25 07:25N 37°41' E 023°32'1011.9
2015-Feb-25 06:33N 37°51' E 023°38'6 5.9
2015-Feb-25 05:33N 37°56' E 023°41'0 0.0
2015-Feb-24 17:33N 37°56' E 023°41'10 9.8
2015-Feb-24 16:34N 37°49' E 023°33'10 3.2
2015-Feb-24 13:33N 37°41' E 023°25'11 9.5
2015-Feb-24 12:20N 37°30' E 023°27'2 2.9
2015-Feb-24 11:32N 37°29' E 023°30'12 2.9
2015-Feb-24 07:31N 37°40' E 023°32'1111.8
2015-Feb-24 06:33N 37°51' E 023°37'6 6.3
2015-Feb-24 05:34N 37°56' E 023°41'0 0.0
2015-Feb-23 17:34N 37°56' E 023°41'1010.0
2015-Feb-23 16:33N 37°49' E 023°32'7 2.7
2015-Feb-23 14:04N 37°45' E 023°26'611.8
2015-Feb-23 13:33N 37°39' E 023°26'9 6.5
2015-Feb-23 12:13N 37°30' E 023°27'3 4.6
2015-Feb-23 11:33N 37°28' E 023°30'7 3.0
2015-Feb-23 09:15N 37°22' E 023°28'1111.0
2015-Feb-23 08:17N 37°32' E 023°31'911.9
2015-Feb-23 07:32N 37°41' E 023°33'1111.8
2015-Feb-23 06:33N 37°52' E 023°37'5 5.5
2015-Feb-23 05:33N 37°56' E 023°41'1 0.1
2015-Feb-22 17:33N 37°55' E 023°40'1110.5
2015-Feb-22 16:33N 37°48' E 023°31'5 2.5
2015-Feb-22 14:22N 37°45' E 023°26'9 9.6
2015-Feb-22 13:25N 37°36' E 023°26'6 6.2
2015-Feb-22 12:31N 37°30' E 023°27'3 3.3
2015-Feb-22 11:33N 37°28' E 023°30'14 3.3
2015-Feb-22 07:27N 37°42' E 023°34'1111.8
2015-Feb-22 06:33N 37°52' E 023°37'5 5.3
2015-Feb-22 05:33N 37°56' E 023°41'0 0.0
2015-Feb-21 17:33N 37°56' E 023°41'1211.6
2015-Feb-21 16:33N 37°49' E 023°30'5 2.1
2015-Feb-21 14:03N 37°45' E 023°25'612.1
2015-Feb-21 13:33N 37°39' E 023°25'9 8.4
2015-Feb-21 12:30N 37°30' E 023°27'14 2.7
2015-Feb-21 07:31N 37°42' E 023°35'1212.0
2015-Feb-21 06:33N 37°53' E 023°39'3 3.4
2015-Feb-21 05:33N 37°56' E 023°41'0 0.0
2015-Feb-19 17:33N 37°56' E 023°41'1211.7
2015-Feb-19 16:33N 37°49' E 023°29'5 2.2
2015-Feb-19 14:06N 37°45' E 023°25'611.8
2015-Feb-19 13:33N 37°38' E 023°25'11 1.8
2015-Feb-19 07:29N 37°41' E 023°39'1112.1
2015-Feb-19 06:33N 37°52' E 023°40'4 3.8
2015-Feb-19 05:33N 37°56' E 023°41'  
Track history (hours):
 
Tides and Currents Weather Stations Pressure Air Temp Water Temp Dewpoint Dewpoint Depression Visibility Wind Speed Wind Dir Waves Ship Positions

Platitera Tonouranon

Last reported at 2015-Feb-28 17:34 UTC. Time now 2015-Feb-28 23:01 UTC.
Position N 37°56' E 023°41'.

Length 55 m; draft 3.8 m.

Type: Ship (hazmat cat A). MMSI: 237038200.

Date/timePositionNaut miles runAvg speedWind from/ knotsBaromVisibWave heightAir tempDewpointWater temp
2015-Feb-28 17:34N 37°56' E 023°41'1010.3
2015-Feb-28 16:33N 37°50' E 023°31'11 3.8
2015-Feb-28 13:33N 37°39' E 023°26'7 1.2
2015-Feb-28 07:34N 37°43' E 023°33'1212.0
2015-Feb-28 06:34N 37°54' E 023°39'3 2.7
2015-Feb-28 05:33N 37°56' E 023°41'0 0.0
2015-Feb-27 16:33N 37°56' E 023°41'1111.1
2015-Feb-27 15:33N 37°47' E 023°34'7 3.2
2015-Feb-27 13:26N 37°45' E 023°26'0 0.2
2015-Feb-27 12:33N 37°45' E 023°25'1210.8
2015-Feb-27 11:24N 37°32' E 023°26'2 2.8
2015-Feb-27 10:33N 37°30' E 023°27'0 0.0
2015-Feb-27 09:33N 37°30' E 023°27'7 7.0
2015-Feb-27 08:33N 37°37' E 023°26'1111.2
2015-Feb-27 07:33N 37°48' E 023°26'1010.3
2015-Feb-27 06:33N 37°53' E 023°38'4 4.2
2015-Feb-27 05:33N 37°56' E 023°41'0 0.0
2015-Feb-26 17:33N 37°56' E 023°41'1010.4
2015-Feb-26 16:33N 37°50' E 023°31'6 3.2
2015-Feb-26 14:33N 37°45' E 023°26'5 5.1
2015-Feb-26 13:31N 37°39' E 023°26'10 9.5
2015-Feb-26 12:31N 37°30' E 023°27'4 4.1
2015-Feb-26 11:29N 37°28' E 023°31'6 2.6
2015-Feb-26 09:16N 37°22' E 023°29'2111.5
2015-Feb-26 07:26N 37°43' E 023°33'1112.0
2015-Feb-26 06:34N 37°53' E 023°37'5 4.4
2015-Feb-26 05:32N 37°56' E 023°41'0 0.0
2015-Feb-25 17:33N 37°56' E 023°41'1110.5
2015-Feb-25 16:33N 37°50' E 023°31'12 3.9
2015-Feb-25 13:23N 37°38' E 023°26'6 1.1
2015-Feb-25 08:04N 37°34' E 023°31'811.8
2015-Feb-25 07:25N 37°41' E 023°32'1011.9
2015-Feb-25 06:33N 37°51' E 023°38'6 5.9
2015-Feb-25 05:33N 37°56' E 023°41'0 0.0
2015-Feb-24 17:33N 37°56' E 023°41'10 9.8
2015-Feb-24 16:34N 37°49' E 023°33'10 3.2
2015-Feb-24 13:33N 37°41' E 023°25'11 9.5
2015-Feb-24 12:20N 37°30' E 023°27'2 2.9
2015-Feb-24 11:32N 37°29' E 023°30'12 2.9
2015-Feb-24 07:31N 37°40' E 023°32'1111.8
2015-Feb-24 06:33N 37°51' E 023°37'6 6.3
2015-Feb-24 05:34N 37°56' E 023°41'0 0.0
2015-Feb-23 17:34N 37°56' E 023°41'1010.0
2015-Feb-23 16:33N 37°49' E 023°32'7 2.7
2015-Feb-23 14:04N 37°45' E 023°26'611.8
2015-Feb-23 13:33N 37°39' E 023°26'9 6.5
2015-Feb-23 12:13N 37°30' E 023°27'3 4.6
2015-Feb-23 11:33N 37°28' E 023°30'7 3.0
2015-Feb-23 09:15N 37°22' E 023°28'1111.0
2015-Feb-23 08:17N 37°32' E 023°31'911.9
2015-Feb-23 07:32N 37°41' E 023°33'1111.8
2015-Feb-23 06:33N 37°52' E 023°37'5 5.5
2015-Feb-23 05:33N 37°56' E 023°41'1 0.1
2015-Feb-22 17:33N 37°55' E 023°40'1110.5
2015-Feb-22 16:33N 37°48' E 023°31'5 2.5
2015-Feb-22 14:22N 37°45' E 023°26'9 9.6
2015-Feb-22 13:25N 37°36' E 023°26'6 6.2
2015-Feb-22 12:31N 37°30' E 023°27'3 3.3
2015-Feb-22 11:33N 37°28' E 023°30'14 3.3
2015-Feb-22 07:27N 37°42' E 023°34'1111.8
2015-Feb-22 06:33N 37°52' E 023°37'5 5.3
2015-Feb-22 05:33N 37°56' E 023°41'0 0.0
2015-Feb-21 17:33N 37°56' E 023°41'1211.6
2015-Feb-21 16:33N 37°49' E 023°30'5 2.1
2015-Feb-21 14:03N 37°45' E 023°25'612.1
2015-Feb-21 13:33N 37°39' E 023°25'9 8.4
2015-Feb-21 12:30N 37°30' E 023°27'14 2.7
2015-Feb-21 07:31N 37°42' E 023°35'1212.0
2015-Feb-21 06:33N 37°53' E 023°39'3 3.4
2015-Feb-21 05:33N 37°56' E 023°41'0 0.0
2015-Feb-19 17:33N 37°56' E 023°41'1211.7
2015-Feb-19 16:33N 37°49' E 023°29'5 2.2
2015-Feb-19 14:06N 37°45' E 023°25'611.8
2015-Feb-19 13:33N 37°38' E 023°25'11 1.8
2015-Feb-19 07:29N 37°41' E 023°39'1112.1
2015-Feb-19 06:33N 37°52' E 023°40'4 3.8
2015-Feb-19 05:33N 37°56' E 023°41'  

Dump ship's entire track history